sensor_id;sensor_type;location;lat;lon;timestamp;P1;durP1;ratioP1;P2;durP2;ratioP2
65039;SDS011;51606;45.000;38.612;2023-09-19T00:00:40;2.05;;;1.55;;
65039;SDS011;51606;45.000;38.612;2023-09-19T00:03:07;2.25;;;1.40;;
65039;SDS011;51606;45.000;38.612;2023-09-19T00:05:35;3.70;;;2.10;;
65039;SDS011;51606;45.000;38.612;2023-09-19T00:08:04;2.90;;;1.42;;
65039;SDS011;51606;45.000;38.612;2023-09-19T00:10:32;2.95;;;2.00;;
65039;SDS011;51606;45.000;38.612;2023-09-19T00:13:02;6.85;;;1.80;;
65039;SDS011;51606;45.000;38.612;2023-09-19T00:15:36;2.72;;;1.83;;
65039;SDS011;51606;45.000;38.612;2023-09-19T00:18:04;2.75;;;1.67;;
65039;SDS011;51606;45.000;38.612;2023-09-19T00:20:38;3.92;;;1.63;;
65039;SDS011;51606;45.000;38.612;2023-09-19T00:23:05;14.75;;;1.88;;
65039;SDS011;51606;45.000;38.612;2023-09-19T00:25:33;3.58;;;2.53;;
65039;SDS011;51606;45.000;38.612;2023-09-19T00:28:04;5.07;;;2.35;;
65039;SDS011;51606;45.000;38.612;2023-09-19T00:30:32;9.15;;;1.85;;
65039;SDS011;51606;45.000;38.612;2023-09-19T00:32:58;9.50;;;2.17;;
65039;SDS011;51606;45.000;38.612;2023-09-19T00:35:26;1.60;;;1.50;;
65039;SDS011;51606;45.000;38.612;2023-09-19T00:37:53;3.28;;;2.00;;
65039;SDS011;51606;45.000;38.612;2023-09-19T00:40:21;3.10;;;1.42;;
65039;SDS011;51606;45.000;38.612;2023-09-19T00:42:48;2.03;;;1.83;;
65039;SDS011;51606;45.000;38.612;2023-09-19T00:45:16;2.65;;;1.85;;
65039;SDS011;51606;45.000;38.612;2023-09-19T00:47:47;4.10;;;1.90;;
65039;SDS011;51606;45.000;38.612;2023-09-19T00:50:19;4.03;;;2.90;;
65039;SDS011;51606;45.000;38.612;2023-09-19T00:52:48;10.32;;;2.08;;
65039;SDS011;51606;45.000;38.612;2023-09-19T00:55:18;2.63;;;1.52;;
65039;SDS011;51606;45.000;38.612;2023-09-19T00:58:05;3.05;;;2.05;;
65039;SDS011;51606;45.000;38.612;2023-09-19T01:00:32;2.15;;;1.55;;
65039;SDS011;51606;45.000;38.612;2023-09-19T01:03:00;2.97;;;1.80;;
65039;SDS011;51606;45.000;38.612;2023-09-19T02:52:09;1.30;;;1.13;;
65039;SDS011;51606;45.000;38.612;2023-09-19T02:54:54;5.43;;;2.55;;
65039;SDS011;51606;45.000;38.612;2023-09-19T02:57:24;5.40;;;1.65;;
65039;SDS011;51606;45.000;38.612;2023-09-19T03:02:56;2.05;;;1.38;;
65039;SDS011;51606;45.000;38.612;2023-09-19T03:24:27;3.10;;;1.15;;
65039;SDS011;51606;45.000;38.612;2023-09-19T03:26:56;2.42;;;1.52;;
65039;SDS011;51606;45.000;38.612;2023-09-19T03:29:23;3.35;;;1.80;;
65039;SDS011;51606;45.000;38.612;2023-09-19T03:31:51;1.75;;;1.55;;
65039;SDS011;51606;45.000;38.612;2023-09-19T03:34:17;13.65;;;2.40;;
65039;SDS011;51606;45.000;38.612;2023-09-19T03:36:45;3.45;;;1.73;;
65039;SDS011;51606;45.000;38.612;2023-09-19T03:39:11;2.67;;;1.52;;
65039;SDS011;51606;45.000;38.612;2023-09-19T03:41:38;3.70;;;1.77;;
65039;SDS011;51606;45.000;38.612;2023-09-19T03:44:05;2.38;;;1.67;;
65039;SDS011;51606;45.000;38.612;2023-09-19T03:46:32;5.90;;;2.25;;
65039;SDS011;51606;45.000;38.612;2023-09-19T03:49:02;11.50;;;1.50;;
65039;SDS011;51606;45.000;38.612;2023-09-19T03:51:29;7.13;;;2.35;;
65039;SDS011;51606;45.000;38.612;2023-09-19T03:53:56;2.42;;;1.75;;
65039;SDS011;51606;45.000;38.612;2023-09-19T03:56:22;2.35;;;1.70;;
65039;SDS011;51606;45.000;38.612;2023-09-19T03:58:49;13.23;;;2.65;;
65039;SDS011;51606;45.000;38.612;2023-09-19T04:01:16;3.97;;;2.38;;
65039;SDS011;51606;45.000;38.612;2023-09-19T04:03:44;3.97;;;2.47;;
65039;SDS011;51606;45.000;38.612;2023-09-19T04:06:14;2.80;;;1.85;;
65039;SDS011;51606;45.000;38.612;2023-09-19T04:08:41;4.40;;;2.83;;
65039;SDS011;51606;45.000;38.612;2023-09-19T04:11:07;2.60;;;2.15;;
65039;SDS011;51606;45.000;38.612;2023-09-19T04:13:34;4.00;;;2.22;;
65039;SDS011;51606;45.000;38.612;2023-09-19T04:16:00;6.05;;;2.80;;
65039;SDS011;51606;45.000;38.612;2023-09-19T04:18:28;3.80;;;2.15;;
65039;SDS011;51606;45.000;38.612;2023-09-19T04:20:57;2.75;;;2.28;;
65039;SDS011;51606;45.000;38.612;2023-09-19T04:23:23;4.65;;;3.13;;
65039;SDS011;51606;45.000;38.612;2023-09-19T04:25:50;4.57;;;2.28;;
65039;SDS011;51606;45.000;38.612;2023-09-19T04:28:16;8.52;;;2.88;;
65039;SDS011;51606;45.000;38.612;2023-09-19T04:30:43;5.78;;;3.17;;
65039;SDS011;51606;45.000;38.612;2023-09-19T04:33:09;5.53;;;3.17;;
65039;SDS011;51606;45.000;38.612;2023-09-19T04:35:37;5.53;;;3.10;;
65039;SDS011;51606;45.000;38.612;2023-09-19T04:38:04;18.25;;;3.00;;
65039;SDS011;51606;45.000;38.612;2023-09-19T04:40:32;6.22;;;3.40;;
65039;SDS011;51606;45.000;38.612;2023-09-19T04:42:59;7.60;;;3.15;;
65039;SDS011;51606;45.000;38.612;2023-09-19T04:45:26;6.63;;;2.33;;
65039;SDS011;51606;45.000;38.612;2023-09-19T04:47:54;4.70;;;3.08;;
65039;SDS011;51606;45.000;38.612;2023-09-19T04:50:21;8.52;;;3.40;;
65039;SDS011;51606;45.000;38.612;2023-09-19T04:52:49;18.75;;;3.35;;
65039;SDS011;51606;45.000;38.612;2023-09-19T04:55:17;12.50;;;3.00;;
65039;SDS011;51606;45.000;38.612;2023-09-19T04:57:44;10.45;;;3.13;;
65039;SDS011;51606;45.000;38.612;2023-09-19T05:00:12;9.13;;;4.00;;
65039;SDS011;51606;45.000;38.612;2023-09-19T05:02:40;7.45;;;3.47;;
65039;SDS011;51606;45.000;38.612;2023-09-19T05:05:08;6.65;;;3.97;;
65039;SDS011;51606;45.000;38.612;2023-09-19T05:07:40;8.10;;;3.60;;
65039;SDS011;51606;45.000;38.612;2023-09-19T05:10:08;8.32;;;3.55;;
65039;SDS011;51606;45.000;38.612;2023-09-19T05:12:35;11.80;;;3.55;;
65039;SDS011;51606;45.000;38.612;2023-09-19T05:15:03;5.35;;;3.00;;
65039;SDS011;51606;45.000;38.612;2023-09-19T05:17:30;17.13;;;3.35;;
65039;SDS011;51606;45.000;38.612;2023-09-19T05:19:57;22.90;;;3.50;;
65039;SDS011;51606;45.000;38.612;2023-09-19T05:22:31;6.18;;;3.15;;
65039;SDS011;51606;45.000;38.612;2023-09-19T05:24:58;5.47;;;3.63;;
65039;SDS011;51606;45.000;38.612;2023-09-19T05:27:25;5.38;;;3.25;;
65039;SDS011;51606;45.000;38.612;2023-09-19T05:29:52;9.23;;;3.42;;
65039;SDS011;51606;45.000;38.612;2023-09-19T05:32:19;18.83;;;3.30;;
65039;SDS011;51606;45.000;38.612;2023-09-19T05:34:45;17.70;;;3.33;;
65039;SDS011;51606;45.000;38.612;2023-09-19T05:37:19;6.30;;;2.80;;
65039;SDS011;51606;45.000;38.612;2023-09-19T05:39:45;4.65;;;2.83;;
65039;SDS011;51606;45.000;38.612;2023-09-19T05:42:12;5.45;;;2.63;;
65039;SDS011;51606;45.000;38.612;2023-09-19T05:44:39;8.15;;;2.95;;
65039;SDS011;51606;45.000;38.612;2023-09-19T05:47:06;14.70;;;2.70;;
65039;SDS011;51606;45.000;38.612;2023-09-19T05:49:37;7.28;;;2.25;;
65039;SDS011;51606;45.000;38.612;2023-09-19T05:52:06;17.88;;;2.60;;
65039;SDS011;51606;45.000;38.612;2023-09-19T05:54:33;5.30;;;1.70;;
65039;SDS011;51606;45.000;38.612;2023-09-19T05:57:00;5.72;;;2.03;;
65039;SDS011;51606;45.000;38.612;2023-09-19T05:59:27;3.35;;;1.58;;
65039;SDS011;51606;45.000;38.612;2023-09-19T06:01:54;4.22;;;1.70;;
65039;SDS011;51606;45.000;38.612;2023-09-19T06:04:21;1.90;;;1.15;;
65039;SDS011;51606;45.000;38.612;2023-09-19T06:06:47;7.88;;;1.40;;
65039;SDS011;51606;45.000;38.612;2023-09-19T06:09:16;2.45;;;1.40;;
65039;SDS011;51606;45.000;38.612;2023-09-19T06:11:43;5.55;;;1.65;;
65039;SDS011;51606;45.000;38.612;2023-09-19T06:14:09;4.38;;;1.60;;
65039;SDS011;51606;45.000;38.612;2023-09-19T06:16:36;2.83;;;1.42;;
65039;SDS011;51606;45.000;38.612;2023-09-19T06:19:10;5.30;;;1.40;;
65039;SDS011;51606;45.000;38.612;2023-09-19T06:32:58;2.55;;;1.48;;
65039;SDS011;51606;45.000;38.612;2023-09-19T06:35:29;4.13;;;1.17;;
65039;SDS011;51606;45.000;38.612;2023-09-19T06:37:59;5.50;;;1.40;;
65039;SDS011;51606;45.000;38.612;2023-09-19T06:40:28;24.10;;;2.15;;
65039;SDS011;51606;45.000;38.612;2023-09-19T06:42:56;4.07;;;1.50;;
65039;SDS011;51606;45.000;38.612;2023-09-19T06:45:23;6.95;;;1.65;;
65039;SDS011;51606;45.000;38.612;2023-09-19T06:47:52;3.45;;;1.10;;
65039;SDS011;51606;45.000;38.612;2023-09-19T06:50:23;2.28;;;1.25;;
65039;SDS011;51606;45.000;38.612;2023-09-19T06:52:53;1.23;;;0.93;;
65039;SDS011;51606;45.000;38.612;2023-09-19T06:55:21;1.92;;;1.25;;
65039;SDS011;51606;45.000;38.612;2023-09-19T06:57:51;3.38;;;1.10;;
65039;SDS011;51606;45.000;38.612;2023-09-19T07:00:19;11.30;;;1.65;;
65039;SDS011;51606;45.000;38.612;2023-09-19T07:05:31;2.55;;;1.33;;
65039;SDS011;51606;45.000;38.612;2023-09-19T07:07:59;4.13;;;1.38;;
65039;SDS011;51606;45.000;38.612;2023-09-19T07:10:26;2.00;;;1.15;;
65039;SDS011;51606;45.000;38.612;2023-09-19T07:12:57;3.53;;;1.48;;
65039;SDS011;51606;45.000;38.612;2023-09-19T07:15:27;1.85;;;0.98;;
65039;SDS011;51606;45.000;38.612;2023-09-19T07:18:02;11.13;;;1.35;;
65039;SDS011;51606;45.000;38.612;2023-09-19T07:20:28;3.25;;;1.30;;
65039;SDS011;51606;45.000;38.612;2023-09-19T07:22:57;4.25;;;1.30;;
65039;SDS011;51606;45.000;38.612;2023-09-19T07:25:28;1.60;;;1.00;;
65039;SDS011;51606;45.000;38.612;2023-09-19T07:27:55;6.20;;;1.60;;
65039;SDS011;51606;45.000;38.612;2023-09-19T07:30:31;1.98;;;1.33;;
65039;SDS011;51606;45.000;38.612;2023-09-19T07:33:03;1.63;;;1.15;;
65039;SDS011;51606;45.000;38.612;2023-09-19T07:35:31;4.38;;;1.13;;
65039;SDS011;51606;45.000;38.612;2023-09-19T07:37:58;2.20;;;1.20;;
65039;SDS011;51606;45.000;38.612;2023-09-19T07:40:27;3.70;;;1.27;;
65039;SDS011;51606;45.000;38.612;2023-09-19T07:42:57;3.88;;;1.25;;
65039;SDS011;51606;45.000;38.612;2023-09-19T07:45:28;3.67;;;1.50;;
65039;SDS011;51606;45.000;38.612;2023-09-19T07:47:55;9.85;;;1.38;;
65039;SDS011;51606;45.000;38.612;2023-09-19T07:50:22;7.13;;;1.52;;
65039;SDS011;51606;45.000;38.612;2023-09-19T07:52:50;1.92;;;1.30;;
65039;SDS011;51606;45.000;38.612;2023-09-19T07:55:18;5.53;;;1.42;;
65039;SDS011;51606;45.000;38.612;2023-09-19T07:57:49;4.90;;;1.20;;
65039;SDS011;51606;45.000;38.612;2023-09-19T08:00:20;4.63;;;1.48;;
65039;SDS011;51606;45.000;38.612;2023-09-19T08:02:46;3.28;;;1.38;;
65039;SDS011;51606;45.000;38.612;2023-09-19T08:05:13;2.15;;;1.30;;
65039;SDS011;51606;45.000;38.612;2023-09-19T08:07:44;3.05;;;1.30;;
65039;SDS011;51606;45.000;38.612;2023-09-19T08:10:15;2.45;;;1.30;;
65039;SDS011;51606;45.000;38.612;2023-09-19T08:12:45;1.55;;;1.20;;
65039;SDS011;51606;45.000;38.612;2023-09-19T08:15:14;2.95;;;1.70;;
65039;SDS011;51606;45.000;38.612;2023-09-19T08:17:41;2.53;;;1.50;;
65039;SDS011;51606;45.000;38.612;2023-09-19T08:20:08;18.00;;;1.80;;
65039;SDS011;51606;45.000;38.612;2023-09-19T08:22:48;3.85;;;1.50;;
65039;SDS011;51606;45.000;38.612;2023-09-19T08:25:23;10.27;;;1.67;;
65039;SDS011;51606;45.000;38.612;2023-09-19T08:28:06;1.95;;;1.33;;
65039;SDS011;51606;45.000;38.612;2023-09-19T08:30:34;4.88;;;1.20;;
65039;SDS011;51606;45.000;38.612;2023-09-19T08:33:03;2.13;;;1.65;;
65039;SDS011;51606;45.000;38.612;2023-09-19T08:35:30;3.38;;;1.60;;
65039;SDS011;51606;45.000;38.612;2023-09-19T08:37:58;8.10;;;1.80;;
65039;SDS011;51606;45.000;38.612;2023-09-19T08:40:29;8.50;;;1.80;;
65039;SDS011;51606;45.000;38.612;2023-09-19T08:43:01;7.68;;;1.75;;
65039;SDS011;51606;45.000;38.612;2023-09-19T08:45:28;7.57;;;1.90;;
65039;SDS011;51606;45.000;38.612;2023-09-19T08:50:52;5.63;;;2.53;;
65039;SDS011;51606;45.000;38.612;2023-09-19T08:56:37;7.78;;;2.38;;
65039;SDS011;51606;45.000;38.612;2023-09-19T08:59:05;6.57;;;2.45;;
65039;SDS011;51606;45.000;38.612;2023-09-19T09:04:09;5.38;;;2.40;;
65039;SDS011;51606;45.000;38.612;2023-09-19T09:06:39;18.77;;;2.40;;
65039;SDS011;51606;45.000;38.612;2023-09-19T09:09:09;5.10;;;1.70;;
65039;SDS011;51606;45.000;38.612;2023-09-19T09:11:36;2.95;;;1.92;;
65039;SDS011;51606;45.000;38.612;2023-09-19T09:14:05;6.90;;;2.20;;
65039;SDS011;51606;45.000;38.612;2023-09-19T09:16:33;2.92;;;1.92;;
65039;SDS011;51606;45.000;38.612;2023-09-19T09:19:00;2.15;;;1.38;;
65039;SDS011;51606;45.000;38.612;2023-09-19T09:21:27;3.42;;;1.20;;
65039;SDS011;51606;45.000;38.612;2023-09-19T09:23:54;3.83;;;1.50;;
65039;SDS011;51606;45.000;38.612;2023-09-19T09:30:02;2.67;;;1.20;;
65039;SDS011;51606;45.000;38.612;2023-09-19T09:32:18;2.67;;;1.65;;
65039;SDS011;51606;45.000;38.612;2023-09-19T09:34:48;2.03;;;1.50;;
65039;SDS011;51606;45.000;38.612;2023-09-19T09:37:19;2.83;;;1.50;;
65039;SDS011;51606;45.000;38.612;2023-09-19T09:40:06;3.38;;;1.77;;
65039;SDS011;51606;45.000;38.612;2023-09-19T09:42:42;3.72;;;1.60;;
65039;SDS011;51606;45.000;38.612;2023-09-19T09:45:29;8.60;;;1.95;;
65039;SDS011;51606;45.000;38.612;2023-09-19T09:48:00;3.58;;;1.75;;
65039;SDS011;51606;45.000;38.612;2023-09-19T09:50:45;3.83;;;1.70;;
65039;SDS011;51606;45.000;38.612;2023-09-19T09:53:31;10.85;;;1.70;;
65039;SDS011;51606;45.000;38.612;2023-09-19T09:56:02;2.58;;;1.45;;
65039;SDS011;51606;45.000;38.612;2023-09-19T09:58:52;9.27;;;2.15;;
65039;SDS011;51606;45.000;38.612;2023-09-19T10:12:55;7.07;;;2.15;;
65039;SDS011;51606;45.000;38.612;2023-09-19T10:15:29;5.47;;;1.92;;
65039;SDS011;51606;45.000;38.612;2023-09-19T10:18:00;7.03;;;1.80;;
65039;SDS011;51606;45.000;38.612;2023-09-19T10:20:28;11.05;;;1.65;;
65039;SDS011;51606;45.000;38.612;2023-09-19T10:23:01;2.05;;;1.48;;
65039;SDS011;51606;45.000;38.612;2023-09-19T10:25:36;8.05;;;1.60;;
65039;SDS011;51606;45.000;38.612;2023-09-19T10:28:15;1.98;;;1.55;;
65039;SDS011;51606;45.000;38.612;2023-09-19T10:30:55;2.30;;;1.20;;
65039;SDS011;51606;45.000;38.612;2023-09-19T10:33:25;2.95;;;1.65;;
65039;SDS011;51606;45.000;38.612;2023-09-19T10:35:51;6.07;;;1.30;;
65039;SDS011;51606;45.000;38.612;2023-09-19T10:38:22;1.75;;;1.05;;
65039;SDS011;51606;45.000;38.612;2023-09-19T10:40:51;2.00;;;1.13;;
65039;SDS011;51606;45.000;38.612;2023-09-19T10:43:20;5.00;;;1.38;;
65039;SDS011;51606;45.000;38.612;2023-09-19T10:45:52;4.85;;;1.42;;
65039;SDS011;51606;45.000;38.612;2023-09-19T10:48:23;5.38;;;1.40;;
65039;SDS011;51606;45.000;38.612;2023-09-19T10:51:08;2.25;;;1.10;;
65039;SDS011;51606;45.000;38.612;2023-09-19T10:53:43;2.70;;;1.20;;
65039;SDS011;51606;45.000;38.612;2023-09-19T10:56:30;1.50;;;1.13;;
65039;SDS011;51606;45.000;38.612;2023-09-19T10:59:07;4.38;;;1.10;;
65039;SDS011;51606;45.000;38.612;2023-09-19T11:01:51;0.80;;;0.80;;
65039;SDS011;51606;45.000;38.612;2023-09-19T11:04:26;1.75;;;0.98;;
65039;SDS011;51606;45.000;38.612;2023-09-19T11:07:19;5.13;;;1.23;;
65039;SDS011;51606;45.000;38.612;2023-09-19T11:09:53;4.10;;;1.17;;
65039;SDS011;51606;45.000;38.612;2023-09-19T11:14:59;5.53;;;1.30;;
65039;SDS011;51606;45.000;38.612;2023-09-19T11:17:33;12.10;;;1.17;;
65039;SDS011;51606;45.000;38.612;2023-09-19T11:30:34;1.00;;;0.85;;
65039;SDS011;51606;45.000;38.612;2023-09-19T11:33:21;4.82;;;1.10;;
65039;SDS011;51606;45.000;38.612;2023-09-19T11:46:53;2.75;;;1.10;;
65039;SDS011;51606;45.000;38.612;2023-09-19T11:49:29;3.85;;;1.38;;
65039;SDS011;51606;45.000;38.612;2023-09-19T11:51:57;2.00;;;1.02;;
65039;SDS011;51606;45.000;38.612;2023-09-19T11:54:28;1.05;;;0.95;;
65039;SDS011;51606;45.000;38.612;2023-09-19T11:56:57;1.83;;;1.38;;
65039;SDS011;51606;45.000;38.612;2023-09-19T11:59:25;1.45;;;1.00;;
65039;SDS011;51606;45.000;38.612;2023-09-19T12:01:55;6.35;;;1.20;;
65039;SDS011;51606;45.000;38.612;2023-09-19T12:04:39;2.03;;;0.95;;
65039;SDS011;51606;45.000;38.612;2023-09-19T12:07:09;2.75;;;1.40;;
65039;SDS011;51606;45.000;38.612;2023-09-19T12:09:47;4.45;;;1.00;;
65039;SDS011;51606;45.000;38.612;2023-09-19T12:12:25;1.33;;;0.98;;
65039;SDS011;51606;45.000;38.612;2023-09-19T12:14:57;8.00;;;1.02;;
65039;SDS011;51606;45.000;38.612;2023-09-19T12:17:40;1.13;;;1.02;;
65039;SDS011;51606;45.000;38.612;2023-09-19T12:20:44;3.65;;;1.00;;
65039;SDS011;51606;45.000;38.612;2023-09-19T12:23:16;1.60;;;0.95;;
65039;SDS011;51606;45.000;38.612;2023-09-19T12:25:43;1.85;;;1.08;;
65039;SDS011;51606;45.000;38.612;2023-09-19T12:28:14;9.80;;;1.27;;
65039;SDS011;51606;45.000;38.612;2023-09-19T12:30:42;2.03;;;1.10;;
65039;SDS011;51606;45.000;38.612;2023-09-19T12:33:18;3.00;;;1.20;;
65039;SDS011;51606;45.000;38.612;2023-09-19T12:35:46;3.13;;;1.30;;
65039;SDS011;51606;45.000;38.612;2023-09-19T12:38:23;2.97;;;1.02;;
65039;SDS011;51606;45.000;38.612;2023-09-19T12:40:51;9.48;;;1.17;;
65039;SDS011;51606;45.000;38.612;2023-09-19T12:43:18;2.60;;;1.23;;
65039;SDS011;51606;45.000;38.612;2023-09-19T12:45:45;3.13;;;1.13;;
65039;SDS011;51606;45.000;38.612;2023-09-19T12:53:41;1.70;;;1.10;;
65039;SDS011;51606;45.000;38.612;2023-09-19T12:56:10;5.85;;;0.93;;
65039;SDS011;51606;45.000;38.612;2023-09-19T12:58:55;2.20;;;1.05;;
65039;SDS011;51606;45.000;38.612;2023-09-19T13:01:24;1.20;;;0.93;;
65039;SDS011;51606;45.000;38.612;2023-09-19T13:06:45;8.60;;;0.90;;
65039;SDS011;51606;45.000;38.612;2023-09-19T13:09:14;1.80;;;0.95;;
65039;SDS011;51606;45.000;38.612;2023-09-19T13:11:45;14.50;;;1.70;;
65039;SDS011;51606;45.000;38.612;2023-09-19T13:14:19;6.32;;;1.70;;
65039;SDS011;51606;45.000;38.612;2023-09-19T13:25:14;5.03;;;1.20;;
65039;SDS011;51606;45.000;38.612;2023-09-19T13:27:49;1.23;;;1.10;;
65039;SDS011;51606;45.000;38.612;2023-09-19T13:30:18;3.80;;;1.20;;
65039;SDS011;51606;45.000;38.612;2023-09-19T13:32:45;4.25;;;1.20;;
65039;SDS011;51606;45.000;38.612;2023-09-19T13:35:13;6.07;;;1.20;;
65039;SDS011;51606;45.000;38.612;2023-09-19T13:37:40;2.05;;;1.33;;
65039;SDS011;51606;45.000;38.612;2023-09-19T13:40:11;2.83;;;1.20;;
65039;SDS011;51606;45.000;38.612;2023-09-19T13:54:01;3.78;;;1.20;;
65039;SDS011;51606;45.000;38.612;2023-09-19T13:56:28;9.82;;;1.10;;
65039;SDS011;51606;45.000;38.612;2023-09-19T13:58:56;1.45;;;1.20;;
65039;SDS011;51606;45.000;38.612;2023-09-19T14:01:23;1.33;;;0.95;;
65039;SDS011;51606;45.000;38.612;2023-09-19T14:03:51;2.75;;;1.40;;
65039;SDS011;51606;45.000;38.612;2023-09-19T14:06:19;2.38;;;1.23;;
65039;SDS011;51606;45.000;38.612;2023-09-19T14:08:46;9.57;;;1.20;;
65039;SDS011;51606;45.000;38.612;2023-09-19T14:11:13;1.42;;;1.10;;
65039;SDS011;51606;45.000;38.612;2023-09-19T14:13:42;9.40;;;1.67;;
65039;SDS011;51606;45.000;38.612;2023-09-19T14:16:15;29.23;;;2.17;;
65039;SDS011;51606;45.000;38.612;2023-09-19T14:18:44;6.25;;;1.50;;
65039;SDS011;51606;45.000;38.612;2023-09-19T14:21:12;5.78;;;1.40;;
65039;SDS011;51606;45.000;38.612;2023-09-19T14:23:40;1.83;;;1.25;;
65039;SDS011;51606;45.000;38.612;2023-09-19T14:26:11;3.03;;;1.55;;
65039;SDS011;51606;45.000;38.612;2023-09-19T14:28:38;2.72;;;1.50;;
65039;SDS011;51606;45.000;38.612;2023-09-19T14:31:05;1.10;;;1.00;;
65039;SDS011;51606;45.000;38.612;2023-09-19T14:33:32;6.47;;;1.35;;
65039;SDS011;51606;45.000;38.612;2023-09-19T14:36:02;7.47;;;1.52;;
65039;SDS011;51606;45.000;38.612;2023-09-19T14:38:36;26.77;;;1.92;;
65039;SDS011;51606;45.000;38.612;2023-09-19T14:41:06;1.70;;;1.27;;
65039;SDS011;51606;45.000;38.612;2023-09-19T14:43:33;5.75;;;1.23;;
65039;SDS011;51606;45.000;38.612;2023-09-19T14:46:03;4.63;;;1.17;;
65039;SDS011;51606;45.000;38.612;2023-09-19T14:48:36;5.50;;;0.85;;
65039;SDS011;51606;45.000;38.612;2023-09-19T14:51:03;5.80;;;0.90;;
65039;SDS011;51606;45.000;38.612;2023-09-19T14:53:31;1.70;;;1.08;;
65039;SDS011;51606;45.000;38.612;2023-09-19T14:56:01;2.90;;;1.08;;
65039;SDS011;51606;45.000;38.612;2023-09-19T14:58:31;1.35;;;0.82;;
65039;SDS011;51606;45.000;38.612;2023-09-19T15:01:05;2.83;;;0.82;;
65039;SDS011;51606;45.000;38.612;2023-09-19T15:03:32;1.73;;;1.10;;
65039;SDS011;51606;45.000;38.612;2023-09-19T15:06:01;10.77;;;1.25;;
65039;SDS011;51606;45.000;38.612;2023-09-19T15:08:31;1.30;;;0.90;;
65039;SDS011;51606;45.000;38.612;2023-09-19T15:11:00;8.07;;;1.00;;
65039;SDS011;51606;45.000;38.612;2023-09-19T15:13:31;3.72;;;1.17;;
65039;SDS011;51606;45.000;38.612;2023-09-19T15:15:58;4.95;;;1.10;;
65039;SDS011;51606;45.000;38.612;2023-09-19T15:18:35;10.70;;;1.10;;
65039;SDS011;51606;45.000;38.612;2023-09-19T15:21:05;2.03;;;0.95;;
65039;SDS011;51606;45.000;38.612;2023-09-19T15:23:33;3.03;;;1.00;;
65039;SDS011;51606;45.000;38.612;2023-09-19T15:26:00;2.13;;;1.10;;
65039;SDS011;51606;45.000;38.612;2023-09-19T15:28:27;13.30;;;1.33;;
65039;SDS011;51606;45.000;38.612;2023-09-19T15:31:01;54.80;;;3.40;;
65039;SDS011;51606;45.000;38.612;2023-09-19T15:33:30;6.63;;;1.33;;
65039;SDS011;51606;45.000;38.612;2023-09-19T15:36:15;11.45;;;1.50;;
65039;SDS011;51606;45.000;38.612;2023-09-19T15:41:19;3.42;;;1.23;;
65039;SDS011;51606;45.000;38.612;2023-09-19T15:43:49;5.93;;;1.20;;
65039;SDS011;51606;45.000;38.612;2023-09-19T15:46:15;2.03;;;1.13;;
65039;SDS011;51606;45.000;38.612;2023-09-19T15:48:42;2.03;;;1.10;;
65039;SDS011;51606;45.000;38.612;2023-09-19T15:51:10;2.67;;;1.00;;
65039;SDS011;51606;45.000;38.612;2023-09-19T15:53:43;4.68;;;1.38;;
65039;SDS011;51606;45.000;38.612;2023-09-19T15:56:11;10.57;;;1.50;;
65039;SDS011;51606;45.000;38.612;2023-09-19T15:58:39;2.67;;;1.10;;
65039;SDS011;51606;45.000;38.612;2023-09-19T16:01:07;1.48;;;0.95;;
65039;SDS011;51606;45.000;38.612;2023-09-19T16:03:37;2.53;;;1.40;;
65039;SDS011;51606;45.000;38.612;2023-09-19T16:06:08;2.35;;;1.20;;
65039;SDS011;51606;45.000;38.612;2023-09-19T16:08:47;1.50;;;1.00;;
65039;SDS011;51606;45.000;38.612;2023-09-19T16:11:15;8.18;;;1.30;;
65039;SDS011;51606;45.000;38.612;2023-09-19T16:13:43;2.45;;;1.60;;
65039;SDS011;51606;45.000;38.612;2023-09-19T16:16:11;4.65;;;1.77;;
65039;SDS011;51606;45.000;38.612;2023-09-19T16:18:39;4.88;;;2.00;;
65039;SDS011;51606;45.000;38.612;2023-09-19T16:21:06;3.90;;;2.08;;
65039;SDS011;51606;45.000;38.612;2023-09-19T16:23:36;5.93;;;1.98;;
65039;SDS011;51606;45.000;38.612;2023-09-19T16:26:07;4.15;;;2.30;;
65039;SDS011;51606;45.000;38.612;2023-09-19T16:28:37;3.90;;;1.83;;
65039;SDS011;51606;45.000;38.612;2023-09-19T16:31:04;8.27;;;2.38;;
65039;SDS011;51606;45.000;38.612;2023-09-19T16:33:39;16.23;;;3.28;;
65039;SDS011;51606;45.000;38.612;2023-09-19T16:36:07;3.47;;;1.95;;
65039;SDS011;51606;45.000;38.612;2023-09-19T16:38:35;18.30;;;2.75;;
65039;SDS011;51606;45.000;38.612;2023-09-19T16:41:03;6.00;;;2.47;;
65039;SDS011;51606;45.000;38.612;2023-09-19T16:43:30;12.88;;;2.28;;
65039;SDS011;51606;45.000;38.612;2023-09-19T16:46:01;18.45;;;2.42;;
65039;SDS011;51606;45.000;38.612;2023-09-19T16:48:34;13.48;;;2.00;;
65039;SDS011;51606;45.000;38.612;2023-09-19T16:51:01;10.02;;;2.22;;
65039;SDS011;51606;45.000;38.612;2023-09-19T16:53:37;36.53;;;3.42;;
65039;SDS011;51606;45.000;38.612;2023-09-19T16:56:08;19.88;;;1.77;;
65039;SDS011;51606;45.000;38.612;2023-09-19T16:58:40;7.60;;;1.75;;
65039;SDS011;51606;45.000;38.612;2023-09-19T17:01:08;18.83;;;2.38;;
65039;SDS011;51606;45.000;38.612;2023-09-19T17:03:36;15.85;;;3.05;;
65039;SDS011;51606;45.000;38.612;2023-09-19T17:06:09;15.93;;;2.03;;
65039;SDS011;51606;45.000;38.612;2023-09-19T17:08:38;16.90;;;2.17;;
65039;SDS011;51606;45.000;38.612;2023-09-19T17:11:06;15.18;;;2.28;;
65039;SDS011;51606;45.000;38.612;2023-09-19T17:13:38;25.95;;;2.60;;
65039;SDS011;51606;45.000;38.612;2023-09-19T17:16:12;20.98;;;2.42;;
65039;SDS011;51606;45.000;38.612;2023-09-19T17:18:52;7.13;;;1.90;;
65039;SDS011;51606;45.000;38.612;2023-09-19T17:35:04;6.13;;;1.63;;
65039;SDS011;51606;45.000;38.612;2023-09-19T17:37:33;7.95;;;1.83;;
65039;SDS011;51606;45.000;38.612;2023-09-19T17:40:00;3.58;;;2.00;;
65039;SDS011;51606;45.000;38.612;2023-09-19T17:42:30;5.15;;;2.33;;
65039;SDS011;51606;45.000;38.612;2023-09-19T17:44:57;13.93;;;2.78;;
65039;SDS011;51606;45.000;38.612;2023-09-19T17:47:23;5.28;;;2.72;;
65039;SDS011;51606;45.000;38.612;2023-09-19T17:49:50;13.52;;;2.65;;
65039;SDS011;51606;45.000;38.612;2023-09-19T17:52:17;6.03;;;2.70;;
65039;SDS011;51606;45.000;38.612;2023-09-19T17:54:44;6.03;;;2.38;;
65039;SDS011;51606;45.000;38.612;2023-09-19T17:57:10;20.70;;;2.25;;
65039;SDS011;51606;45.000;38.612;2023-09-19T17:59:37;2.00;;;1.35;;
65039;SDS011;51606;45.000;38.612;2023-09-19T18:02:04;4.65;;;2.08;;
65039;SDS011;51606;45.000;38.612;2023-09-19T18:04:31;4.93;;;1.50;;
65039;SDS011;51606;45.000;38.612;2023-09-19T18:06:57;2.30;;;1.63;;
65039;SDS011;51606;45.000;38.612;2023-09-19T18:09:24;15.82;;;1.58;;
65039;SDS011;51606;45.000;38.612;2023-09-19T18:11:50;9.35;;;1.85;;
65039;SDS011;51606;45.000;38.612;2023-09-19T18:14:17;12.35;;;1.48;;
65039;SDS011;51606;45.000;38.612;2023-09-19T18:16:44;19.45;;;1.85;;
65039;SDS011;51606;45.000;38.612;2023-09-19T18:19:10;20.77;;;2.15;;
65039;SDS011;51606;45.000;38.612;2023-09-19T18:21:38;4.43;;;1.73;;
65039;SDS011;51606;45.000;38.612;2023-09-19T18:24:07;2.13;;;1.20;;
65039;SDS011;51606;45.000;38.612;2023-09-19T18:26:40;18.52;;;2.10;;
65039;SDS011;51606;45.000;38.612;2023-09-19T18:29:08;21.27;;;1.73;;
65039;SDS011;51606;45.000;38.612;2023-09-19T18:31:37;8.88;;;1.67;;
65039;SDS011;51606;45.000;38.612;2023-09-19T18:34:04;6.80;;;1.55;;
65039;SDS011;51606;45.000;38.612;2023-09-19T18:36:32;5.35;;;1.25;;
65039;SDS011;51606;45.000;38.612;2023-09-19T18:38:59;4.07;;;1.70;;
65039;SDS011;51606;45.000;38.612;2023-09-19T18:41:26;4.68;;;1.80;;
65039;SDS011;51606;45.000;38.612;2023-09-19T18:43:52;3.03;;;1.42;;